createdAt,value
2018-07-22T00:00:46.596Z,49.10
2018-07-22T00:03:23.634Z,50.00
2018-07-22T00:05:59.886Z,49.30
2018-07-22T00:08:33.647Z,51.20
2018-07-22T00:11:07.115Z,50.90
2018-07-22T00:13:41.062Z,51.40
2018-07-22T00:16:18.119Z,52.90
2018-07-22T00:18:52.882Z,49.80
2018-07-22T00:21:27.436Z,50.20
2018-07-22T00:24:08.947Z,51.00
2018-07-22T00:26:44.552Z,50.60
2018-07-22T00:29:19.259Z,52.90
2018-07-22T00:31:56.740Z,52.30
2018-07-22T00:34:31.485Z,53.30
2018-07-22T00:37:05.307Z,52.00
2018-07-22T00:39:44.073Z,53.30
2018-07-22T00:42:20.053Z,53.20
2018-07-22T00:44:55.553Z,54.70
2018-07-22T00:47:30.113Z,54.90
2018-07-22T00:50:03.911Z,55.50
2018-07-22T00:52:36.723Z,54.80
2018-07-22T00:55:10.531Z,54.20
2018-07-22T00:57:44.568Z,56.10
2018-07-22T01:00:18.559Z,56.60
2018-07-22T01:02:53.375Z,55.50
2018-07-22T01:05:42.693Z,53.40
2018-07-22T01:08:17.503Z,52.80
2018-07-22T01:10:53.299Z,52.60
2018-07-22T01:13:27.387Z,47.30
2018-07-22T01:16:06.999Z,49.10
2018-07-22T01:18:44.477Z,46.90
2018-07-22T01:21:28.704Z,46.60
2018-07-22T01:24:08.639Z,46.20
2018-07-22T01:26:42.692Z,45.60
2018-07-22T01:29:20.199Z,45.40
2018-07-22T01:31:57.949Z,45.20
2018-07-22T01:34:33.995Z,47.30
2018-07-22T01:37:08.027Z,47.20
2018-07-22T01:39:45.489Z,48.20
2018-07-22T01:42:20.797Z,47.20
2018-07-22T01:44:56.331Z,47.90
2018-07-22T01:47:35.259Z,46.10
2018-07-22T01:50:11.943Z,46.90
2018-07-22T01:55:23.933Z,47.70
2018-07-22T01:58:09.098Z,47.90
2018-07-22T02:03:20.336Z,48.30
2018-07-22T02:08:45.037Z,46.80
2018-07-22T02:11:44.511Z,46.30
2018-07-22T02:14:25.249Z,45.40
2018-07-22T02:17:02.600Z,45.00
2018-07-22T02:19:38.522Z,45.40
2018-07-22T02:22:16.194Z,46.70
2018-07-22T02:24:54.015Z,48.00
2018-07-22T02:32:25.387Z,44.60
2018-07-22T02:35:15.382Z,44.00
2018-07-22T02:38:55.048Z,46.00
2018-07-22T02:47:45.412Z,49.20
2018-07-22T02:50:19.356Z,50.10
2018-07-22T02:52:55.703Z,50.40
2018-07-22T02:55:29.768Z,50.80
2018-07-22T02:58:07.795Z,51.70
2018-07-22T03:00:45.852Z,52.50
2018-07-22T03:03:22.088Z,54.20
2018-07-22T03:05:55.943Z,52.90
2018-07-22T03:08:31.279Z,53.70
2018-07-22T03:11:07.320Z,54.10
2018-07-22T03:13:44.462Z,55.60
2018-07-22T03:16:22.040Z,55.40
2018-07-22T03:18:58.748Z,56.20
2018-07-22T03:21:40.579Z,64.50
2018-07-22T03:24:18.841Z,60.80
2018-07-22T03:26:54.605Z,59.90
2018-07-22T03:29:33.670Z,59.80
2018-07-22T03:32:12.823Z,60.10
2018-07-22T03:37:21.256Z,61.70
2018-07-22T03:39:55.650Z,63.70
2018-07-22T03:42:29.136Z,68.30
2018-07-22T03:45:04.076Z,65.40
2018-07-22T03:47:40.697Z,64.70
2018-07-22T03:50:15.708Z,66.70
2018-07-22T03:52:48.825Z,67.80
2018-07-22T03:55:22.860Z,66.20
2018-07-22T03:57:59.583Z,66.50
2018-07-22T04:00:34.990Z,67.30
2018-07-22T04:03:13.370Z,70.70
2018-07-22T04:05:47.149Z,72.90
2018-07-22T04:08:22.002Z,71.20
2018-07-22T04:10:57.605Z,75.30
2018-07-22T04:13:33.893Z,75.80
2018-07-22T04:16:11.753Z,77.90
2018-07-22T04:18:51.075Z,80.80
2018-07-22T04:21:28.189Z,78.00
2018-07-22T04:24:05.692Z,81.70
2018-07-22T04:26:39.186Z,82.40
2018-07-22T04:29:14.102Z,83.50
2018-07-22T04:31:48.041Z,82.80
2018-07-22T04:34:26.214Z,86.60
2018-07-22T04:36:59.502Z,84.90
2018-07-22T04:39:33.256Z,85.80
2018-07-22T04:42:06.129Z,85.40
2018-07-22T04:44:41.793Z,85.20
2018-07-22T04:47:16.901Z,86.50
2018-07-22T04:49:52.979Z,86.40
2018-07-22T04:52:28.012Z,88.20
2018-07-22T04:55:02.930Z,88.70
2018-07-22T04:57:36.005Z,88.60
2018-07-22T05:00:10.993Z,89.40
2018-07-22T05:02:47.205Z,90.00
2018-07-22T05:05:21.691Z,90.20
2018-07-22T05:10:30.456Z,90.70
2018-07-22T05:13:04.743Z,90.80
2018-07-22T05:15:38.519Z,91.10
2018-07-22T05:18:12.147Z,91.10
2018-07-22T05:20:45.557Z,91.70
2018-07-22T05:23:18.703Z,91.20
2018-07-22T05:25:53.544Z,91.70
2018-07-22T05:28:29.343Z,91.80
2018-07-22T05:31:04.403Z,91.90
2018-07-22T05:33:40.222Z,91.90
2018-07-22T05:44:06.667Z,92.20
2018-07-22T06:00:35.099Z,93.20
2018-07-22T06:07:30.835Z,93.30
2018-07-22T06:10:05.362Z,93.70
2018-07-22T06:12:38.803Z,93.70
2018-07-22T06:15:13.555Z,94.30
2018-07-22T06:17:48.929Z,94.40
2018-07-22T06:20:25.993Z,94.90
2018-07-22T06:23:03.142Z,94.90
2018-07-22T06:25:37.247Z,94.90
2018-07-22T06:28:14.047Z,95.40
2018-07-22T06:30:47.823Z,95.20
2018-07-22T06:33:22.436Z,94.60
2018-07-22T06:36:00.224Z,94.70
2018-07-22T06:38:34.676Z,95.10
2018-07-22T06:41:08.715Z,94.90
2018-07-22T06:43:49.419Z,95.30
2018-07-22T06:46:23.917Z,95.70
2018-07-22T06:49:00.548Z,94.90
2018-07-22T06:51:34.177Z,94.60
2018-07-22T06:54:07.641Z,94.60
2018-07-22T06:56:42.618Z,94.50
2018-07-22T06:59:16.905Z,94.50
2018-07-22T07:01:51.489Z,94.50
2018-07-22T07:04:30.791Z,94.40
2018-07-22T07:07:05.887Z,94.60
2018-07-22T07:09:39.150Z,94.90
2018-07-22T07:12:12.646Z,95.00
2018-07-22T07:14:45.608Z,95.20
2018-07-22T07:17:18.516Z,95.20
2018-07-22T07:19:56.852Z,94.70
2018-07-22T07:22:31.387Z,94.80
2018-07-22T07:25:07.353Z,94.80
2018-07-22T07:27:44.921Z,95.10
2018-07-22T07:35:23.848Z,94.80
2018-07-22T07:38:00.141Z,94.60
2018-07-22T07:40:33.129Z,95.10
2018-07-22T07:43:07.958Z,95.70
2018-07-22T15:36:22.114Z,93.80
2018-07-22T15:38:55.288Z,94.50
2018-07-22T15:41:28.704Z,95.10
2018-07-22T15:44:04.494Z,95.30
2018-07-22T15:46:46.233Z,95.70
2018-07-22T15:49:19.836Z,96.20
2018-07-22T15:51:53.205Z,96.30
2018-07-22T15:54:26.628Z,96.50
2018-07-22T15:57:00.695Z,96.70
2018-07-22T15:59:33.881Z,96.50
2018-07-22T16:02:07.046Z,96.00
2018-07-22T16:04:40.913Z,95.90
2018-07-22T16:07:14.065Z,96.40
2018-07-22T16:09:47.397Z,95.40
2018-07-22T16:12:20.487Z,95.80
2018-07-22T16:14:53.696Z,95.70
2018-07-22T16:17:26.831Z,95.60
2018-07-22T16:20:00.636Z,95.70
2018-07-22T16:22:49.589Z,96.00
2018-07-22T16:25:39.360Z,95.40
2018-07-22T16:28:27.224Z,95.40
2018-07-22T16:31:01.252Z,95.40
2018-07-22T16:33:34.748Z,95.30
2018-07-22T16:36:07.908Z,94.80
2018-07-22T16:38:41.170Z,94.20
2018-07-22T16:41:14.416Z,94.40
2018-07-22T16:43:47.773Z,93.90
2018-07-22T16:46:21.082Z,93.90
2018-07-22T16:48:55.178Z,94.10
2018-07-22T16:51:28.114Z,94.70
2018-07-22T16:54:01.495Z,94.50
2018-07-22T16:56:35.491Z,94.10
2018-07-22T16:59:08.746Z,93.80
2018-07-22T17:01:41.890Z,93.80
2018-07-22T17:04:15.040Z,94.20
2018-07-22T17:09:20.068Z,92.90
2018-07-22T17:11:53.764Z,92.80
2018-07-22T17:14:26.947Z,92.50
2018-07-22T17:17:00.462Z,92.60
2018-07-22T17:19:33.597Z,91.70
2018-07-22T17:22:06.736Z,91.60
2018-07-22T17:24:39.899Z,91.30
2018-07-22T17:27:12.997Z,92.30
2018-07-22T17:29:46.311Z,91.20
2018-07-22T17:32:19.581Z,91.20
2018-07-22T17:34:52.751Z,91.00
2018-07-22T17:37:27.078Z,90.60
2018-07-22T17:40:02.138Z,90.10
2018-07-22T17:42:35.478Z,90.00
2018-07-22T17:45:08.669Z,90.30
2018-07-22T17:47:41.755Z,90.10
2018-07-22T17:50:15.687Z,89.30
2018-07-22T17:52:48.937Z,89.10
2018-07-22T17:55:22.976Z,88.70
2018-07-22T18:00:36.305Z,88.90
2018-07-22T18:03:27.390Z,87.80
2018-07-22T18:06:01.745Z,88.40
2018-07-22T18:09:14.991Z,85.60
2018-07-22T18:13:10.409Z,84.80
2018-07-22T18:25:47.735Z,83.90
2018-07-22T18:31:20.489Z,82.50
2018-07-22T18:33:53.788Z,82.80
2018-07-22T18:36:26.903Z,82.20
2018-07-22T18:39:02.553Z,84.30
2018-07-22T18:41:39.552Z,83.40
2018-07-22T18:44:14.138Z,81.60
2018-07-22T18:46:48.788Z,82.50
2018-07-22T18:50:06.560Z,81.00
2018-07-22T18:52:39.959Z,82.40
2018-07-22T18:55:13.248Z,80.10
2018-07-22T18:57:46.729Z,79.20
2018-07-22T19:00:20.076Z,81.40
2018-07-22T19:02:53.820Z,81.10
2018-07-22T19:05:27.605Z,80.90
2018-07-22T19:10:33.535Z,82.00
2018-07-22T19:13:06.581Z,84.10
2018-07-22T19:15:39.821Z,81.70
2018-07-22T19:20:45.166Z,79.00
2018-07-22T19:23:18.762Z,80.70
2018-07-22T19:25:51.938Z,77.30
2018-07-22T19:28:25.090Z,77.80
2018-07-22T19:30:58.146Z,77.60
2018-07-22T19:33:32.122Z,78.30
2018-07-22T19:36:05.229Z,80.40
2018-07-22T19:38:38.677Z,80.90
2018-07-22T19:41:11.810Z,81.10
2018-07-22T19:46:16.391Z,79.30
2018-07-22T19:48:49.819Z,78.90
2018-07-22T19:51:22.831Z,79.50
2018-07-22T19:53:55.897Z,79.70
2018-07-22T19:56:29.283Z,78.10
2018-07-22T19:59:02.602Z,77.40
2018-07-22T20:01:39.690Z,76.50
2018-07-22T20:04:14.902Z,78.30
2018-07-22T20:06:48.200Z,77.60
2018-07-22T20:09:21.363Z,77.00
2018-07-22T20:11:54.663Z,77.90
2018-07-22T20:14:27.837Z,72.90
2018-07-22T20:17:00.967Z,71.50
2018-07-22T20:19:34.261Z,73.50
2018-07-22T20:22:07.467Z,71.30
2018-07-22T20:24:40.828Z,71.10
2018-07-22T20:27:14.016Z,71.80
2018-07-22T20:32:19.207Z,71.10
2018-07-22T20:34:52.478Z,68.80
2018-07-22T20:37:25.961Z,68.70
2018-07-22T20:39:59.184Z,66.30
2018-07-22T20:42:32.261Z,68.80
2018-07-22T20:45:05.472Z,72.20
2018-07-22T20:47:38.739Z,70.70
2018-07-22T20:50:12.033Z,73.70
2018-07-22T20:52:45.327Z,74.90
2018-07-22T20:55:18.589Z,71.60
2018-07-22T20:57:53.003Z,65.90
2018-07-22T21:00:26.300Z,63.60
2018-07-22T21:02:59.508Z,63.60
2018-07-22T21:05:32.612Z,63.30
2018-07-22T21:08:05.819Z,66.40
2018-07-22T21:10:39.291Z,65.40
2018-07-22T21:13:21.316Z,63.90
2018-07-22T21:15:54.609Z,64.50
2018-07-22T21:18:28.317Z,62.70
2018-07-22T21:21:02.510Z,62.50
2018-07-22T21:23:35.820Z,63.50
2018-07-22T21:26:09.317Z,61.10
2018-07-22T21:28:42.459Z,62.40
2018-07-22T21:31:15.639Z,61.40
2018-07-22T21:33:48.876Z,61.30
2018-07-22T21:36:22.314Z,61.10
2018-07-22T21:38:55.924Z,61.60
2018-07-22T21:41:30.582Z,59.70
2018-07-22T21:44:03.826Z,59.00
2018-07-22T21:46:37.118Z,58.50
2018-07-22T21:49:10.560Z,58.90
2018-07-22T21:51:43.701Z,62.60
2018-07-22T21:54:17.021Z,57.00
2018-07-22T21:56:50.163Z,58.00
2018-07-22T21:59:23.468Z,56.10
2018-07-22T22:01:56.798Z,57.10
2018-07-22T22:04:30.174Z,54.90
2018-07-22T22:07:03.872Z,55.70
2018-07-22T22:09:37.183Z,54.90
2018-07-22T22:12:10.283Z,55.60
2018-07-22T22:14:43.710Z,57.70
2018-07-22T22:17:17.087Z,54.80
2018-07-22T22:19:50.408Z,52.00
2018-07-22T22:22:23.657Z,51.50
2018-07-22T22:24:56.807Z,51.00
2018-07-22T22:27:29.942Z,52.10
2018-07-22T22:30:03.243Z,50.70
2018-07-22T22:32:36.491Z,50.80
2018-07-22T22:35:10.240Z,50.10
2018-07-22T22:37:45.022Z,53.00
2018-07-22T22:40:18.563Z,50.80
2018-07-22T22:42:51.705Z,50.10
2018-07-22T22:45:24.891Z,47.80
2018-07-22T22:47:58.134Z,49.00
2018-07-22T22:50:31.423Z,51.10
2018-07-22T22:53:04.769Z,51.50
2018-07-22T22:55:38.165Z,48.00
2018-07-22T22:58:21.281Z,48.90
2018-07-22T23:00:54.644Z,49.00
2018-07-22T23:03:28.938Z,48.40
2018-07-22T23:06:01.989Z,46.80
2018-07-22T23:08:35.220Z,48.00
2018-07-22T23:11:09.942Z,46.70
2018-07-22T23:13:43.638Z,45.60
2018-07-22T23:16:17.159Z,46.70
2018-07-22T23:18:50.228Z,46.20
2018-07-22T23:21:23.480Z,46.10
2018-07-22T23:23:56.889Z,49.20
2018-07-22T23:26:31.504Z,47.70
2018-07-22T23:29:04.774Z,48.00
2018-07-22T23:31:38.744Z,46.30
2018-07-22T23:34:12.005Z,47.40
2018-07-22T23:36:45.280Z,47.00
2018-07-22T23:39:18.619Z,48.60
2018-07-22T23:41:52.077Z,47.90
2018-07-22T23:44:26.044Z,48.40
2018-07-22T23:49:31.671Z,48.20
2018-07-22T23:52:05.715Z,47.00
2018-07-22T23:54:39.347Z,46.90
2018-07-22T23:57:12.744Z,47.20
2018-07-22T23:59:45.989Z,47.90
